createdAt,value
2019-05-13T00:00:29.117Z,988.60
2019-05-13T00:01:29.165Z,988.57
2019-05-13T00:02:29.179Z,988.59
2019-05-13T00:03:29.132Z,988.43
2019-05-13T00:04:29.188Z,988.47
2019-05-13T00:05:29.171Z,988.43
2019-05-13T00:06:29.125Z,988.54
2019-05-13T00:07:29.173Z,988.48
2019-05-13T00:08:29.174Z,988.45
2019-05-13T00:09:29.149Z,988.43
2019-05-13T00:10:29.194Z,988.43
2019-05-13T00:11:29.170Z,988.46
2019-05-13T00:12:29.131Z,988.36
2019-05-13T00:13:29.182Z,988.46
2019-05-13T00:14:29.179Z,988.50
2019-05-13T00:15:29.136Z,988.45
2019-05-13T00:16:29.197Z,988.58
2019-05-13T00:17:29.184Z,988.50
2019-05-13T00:18:29.201Z,988.44
2019-05-13T00:19:29.198Z,988.43
2019-05-13T00:20:29.187Z,988.58
2019-05-13T00:21:29.141Z,988.50
2019-05-13T00:22:29.170Z,988.54
2019-05-13T00:23:29.163Z,988.48
2019-05-13T00:24:29.144Z,988.56
2019-05-13T00:25:29.191Z,988.57
2019-05-13T00:26:29.182Z,988.57
2019-05-13T00:27:29.141Z,988.65
2019-05-13T00:28:29.209Z,988.60
2019-05-13T00:29:29.183Z,988.53
2019-05-13T00:30:29.200Z,988.67
2019-05-13T00:31:29.177Z,988.53
2019-05-13T00:32:29.191Z,988.60
2019-05-13T00:33:29.161Z,988.48
2019-05-13T00:34:29.206Z,988.67
2019-05-13T00:35:29.188Z,988.69
2019-05-13T00:36:29.136Z,988.69
2019-05-13T00:37:29.199Z,988.51
2019-05-13T00:38:29.179Z,988.58
2019-05-13T00:39:29.233Z,988.58
2019-05-13T00:40:29.227Z,988.56
2019-05-13T00:41:29.205Z,988.58
2019-05-13T00:42:29.208Z,988.55
2019-05-13T00:43:29.192Z,988.44
2019-05-13T00:44:29.196Z,988.55
2019-05-13T00:45:29.165Z,988.58
2019-05-13T00:46:29.212Z,988.53
2019-05-13T00:47:29.200Z,988.50
2019-05-13T00:48:29.845Z,988.59
2019-05-13T00:49:29.200Z,988.43
2019-05-13T00:50:29.173Z,988.51
2019-05-13T00:51:29.180Z,988.50
2019-05-13T00:52:29.229Z,988.62
2019-05-13T00:53:29.204Z,988.42
2019-05-13T00:54:29.161Z,988.47
2019-05-13T00:55:29.180Z,988.67
2019-05-13T00:56:29.201Z,988.52
2019-05-13T00:57:29.183Z,988.49
2019-05-13T00:58:29.241Z,988.55
2019-05-13T00:59:29.214Z,988.50
2019-05-13T01:00:29.163Z,988.64
2019-05-13T01:01:29.224Z,988.40
2019-05-13T01:02:29.219Z,988.54
2019-05-13T01:03:29.198Z,988.55
2019-05-13T01:04:29.243Z,988.53
2019-05-13T01:05:29.216Z,988.59
2019-05-13T01:06:29.177Z,988.56
2019-05-13T01:07:29.179Z,988.63
2019-05-13T01:08:29.218Z,988.67
2019-05-13T01:09:29.185Z,988.57
2019-05-13T01:10:29.238Z,988.61
2019-05-13T01:11:29.206Z,988.59
2019-05-13T01:12:29.172Z,988.55
2019-05-13T01:13:29.239Z,988.59
2019-05-13T01:14:29.225Z,988.78
2019-05-13T01:15:29.191Z,988.68
2019-05-13T01:16:29.241Z,988.66
2019-05-13T01:17:29.203Z,988.65
2019-05-13T01:18:29.176Z,988.73
2019-05-13T01:19:29.239Z,988.55
2019-05-13T01:20:29.250Z,988.70
2019-05-13T01:21:29.252Z,988.46
2019-05-13T01:22:29.250Z,988.57
2019-05-13T01:23:29.234Z,988.55
2019-05-13T01:24:29.184Z,988.47
2019-05-13T01:25:29.236Z,988.40
2019-05-13T01:26:29.234Z,988.44
2019-05-13T01:27:29.234Z,988.41
2019-05-13T01:28:29.261Z,988.50
2019-05-13T01:29:29.210Z,988.43
2019-05-13T01:30:29.189Z,988.40
2019-05-13T01:31:29.237Z,988.39
2019-05-13T01:32:29.243Z,988.41
2019-05-13T01:33:29.202Z,988.40
2019-05-13T01:34:29.242Z,988.42
2019-05-13T01:35:29.248Z,988.28
2019-05-13T01:36:29.192Z,988.44
2019-05-13T01:37:39.963Z,988.32
2019-05-13T01:38:29.244Z,988.33
2019-05-13T01:39:29.219Z,988.30
2019-05-13T01:40:29.258Z,988.32
2019-05-13T01:41:29.235Z,988.35
2019-05-13T01:42:29.241Z,988.32
2019-05-13T01:43:29.263Z,988.35
2019-05-13T01:44:29.251Z,988.30
2019-05-13T01:45:29.207Z,988.36
2019-05-13T01:46:29.274Z,988.39
2019-05-13T01:47:29.247Z,988.37
2019-05-13T01:48:29.247Z,988.31
2019-05-13T01:49:29.248Z,988.40
2019-05-13T01:50:29.253Z,988.45
2019-05-13T01:51:29.215Z,988.41
2019-05-13T01:52:29.273Z,988.36
2019-05-13T01:53:29.243Z,988.43
2019-05-13T01:54:29.203Z,988.32
2019-05-13T01:55:29.263Z,988.34
2019-05-13T01:56:29.232Z,988.37
2019-05-13T01:57:29.215Z,988.17
2019-05-13T01:58:29.282Z,988.27
2019-05-13T01:59:29.257Z,988.36
2019-05-13T02:00:29.227Z,988.16
2019-05-13T02:01:29.244Z,988.34
2019-05-13T02:02:29.254Z,988.29
2019-05-13T02:03:29.227Z,988.34
2019-05-13T02:04:29.282Z,988.32
2019-05-13T02:05:29.266Z,988.32
2019-05-13T02:06:29.211Z,988.41
2019-05-13T02:07:29.259Z,988.43
2019-05-13T02:08:29.247Z,988.33
2019-05-13T02:09:29.288Z,988.41
2019-05-13T02:10:29.290Z,988.32
2019-05-13T02:11:29.258Z,988.29
2019-05-13T02:12:29.225Z,988.38
2019-05-13T02:13:29.272Z,988.34
2019-05-13T02:14:29.272Z,988.39
2019-05-13T02:15:29.230Z,988.22
2019-05-13T02:16:29.295Z,988.36
2019-05-13T02:17:29.274Z,988.39
2019-05-13T02:18:29.242Z,988.18
2019-05-13T02:19:29.281Z,988.54
2019-05-13T02:20:29.252Z,988.35
2019-05-13T02:21:29.237Z,988.54
2019-05-13T02:22:29.297Z,988.38
2019-05-13T02:23:29.279Z,988.54
2019-05-13T02:24:29.228Z,988.45
2019-05-13T02:25:29.280Z,988.39
2019-05-13T02:26:29.282Z,988.33
2019-05-13T02:27:29.240Z,988.44
2019-05-13T02:28:29.278Z,988.52
2019-05-13T02:29:29.288Z,988.49
2019-05-13T02:30:29.227Z,988.35
2019-05-13T02:31:41.437Z,988.53
2019-05-13T02:32:32.674Z,988.45
2019-05-13T02:33:29.288Z,988.49
2019-05-13T02:34:32.201Z,988.52
2019-05-13T02:35:32.255Z,988.56
2019-05-13T02:36:32.656Z,988.58
2019-05-13T02:37:30.968Z,988.55
2019-05-13T02:38:31.800Z,988.59
2019-05-13T02:39:32.237Z,988.59
2019-05-13T02:40:32.451Z,988.53
2019-05-13T02:41:29.295Z,988.57
2019-05-13T02:42:29.236Z,988.64
2019-05-13T02:43:32.952Z,988.69
2019-05-13T02:44:29.280Z,988.66
2019-05-13T02:45:29.258Z,988.71
2019-05-13T02:46:29.316Z,988.75
2019-05-13T02:47:29.294Z,988.77
2019-05-13T02:48:29.252Z,988.70
2019-05-13T02:49:32.119Z,988.71
2019-05-13T02:50:29.303Z,988.73
2019-05-13T02:51:29.274Z,988.76
2019-05-13T02:52:29.303Z,988.88
2019-05-13T02:53:29.306Z,988.67
2019-05-13T02:54:29.251Z,988.80
2019-05-13T02:55:32.671Z,988.83
2019-05-13T02:56:29.310Z,988.79
2019-05-13T02:57:32.570Z,988.74
2019-05-13T02:58:32.934Z,988.82
2019-05-13T02:59:29.291Z,988.64
2019-05-13T03:00:32.641Z,988.62
2019-05-13T03:01:32.864Z,988.67
2019-05-13T03:02:32.563Z,988.76
2019-05-13T03:03:32.407Z,988.78
2019-05-13T03:04:32.315Z,988.69
2019-05-13T03:05:31.923Z,988.59
2019-05-13T03:06:32.777Z,988.65
2019-05-13T03:07:29.299Z,988.35
2019-05-13T03:08:40.895Z,988.62
2019-05-13T03:09:32.182Z,988.34
2019-05-13T03:10:29.304Z,988.29
2019-05-13T03:11:29.307Z,988.39
2019-05-13T03:12:31.987Z,988.20
2019-05-13T03:13:32.307Z,988.43
2019-05-13T03:14:32.053Z,988.20
2019-05-13T03:15:32.462Z,988.36
2019-05-13T03:16:32.239Z,988.35
2019-05-13T03:17:32.404Z,988.37
2019-05-13T03:18:33.103Z,988.44
2019-05-13T03:19:32.974Z,988.36
2019-05-13T03:20:33.018Z,988.12
2019-05-13T03:21:32.411Z,988.20
2019-05-13T03:22:31.829Z,988.57
2019-05-13T03:23:32.440Z,988.38
2019-05-13T03:24:32.702Z,988.33
2019-05-13T03:25:32.748Z,988.41
2019-05-13T03:26:32.112Z,988.53
2019-05-13T03:27:33.316Z,988.51
2019-05-13T03:28:33.133Z,988.52
2019-05-13T03:29:32.721Z,988.49
2019-05-13T03:30:34.645Z,988.46
2019-05-13T03:31:35.221Z,988.70
2019-05-13T03:32:37.889Z,988.54
2019-05-13T03:33:29.365Z,988.60
2019-05-13T03:34:35.183Z,988.59
2019-05-13T03:35:29.320Z,988.63
2019-05-13T03:36:29.278Z,988.42
2019-05-13T03:37:29.327Z,988.62
2019-05-13T03:38:29.327Z,988.69
2019-05-13T03:39:29.314Z,988.63
2019-05-13T03:40:29.346Z,988.55
2019-05-13T03:41:29.347Z,988.64
2019-05-13T03:42:29.326Z,988.63
2019-05-13T03:43:32.416Z,988.54
2019-05-13T03:44:32.214Z,988.70
2019-05-13T03:45:32.460Z,988.57
2019-05-13T03:46:29.346Z,988.67
2019-05-13T03:47:29.322Z,988.65
2019-05-13T03:48:29.300Z,988.68
2019-05-13T03:49:32.280Z,988.74
2019-05-13T03:50:33.431Z,988.71
2019-05-13T03:51:32.473Z,988.69
2019-05-13T03:52:33.263Z,988.72
2019-05-13T03:53:32.272Z,988.73
2019-05-13T03:54:32.547Z,988.77
2019-05-13T03:55:32.574Z,988.80
2019-05-13T03:56:32.617Z,988.77
2019-05-13T03:57:29.328Z,988.76
2019-05-13T03:58:32.259Z,988.70
2019-05-13T03:59:32.905Z,988.77
2019-05-13T04:00:32.069Z,988.69
2019-05-13T04:01:32.294Z,988.65
2019-05-13T04:02:32.360Z,988.89
2019-05-13T04:03:29.339Z,988.76
2019-05-13T04:04:32.184Z,988.69
2019-05-13T04:05:33.120Z,988.75
2019-05-13T04:06:32.106Z,988.71
2019-05-13T04:07:32.409Z,988.70
2019-05-13T04:08:29.344Z,988.81
2019-05-13T04:09:32.494Z,988.76
2019-05-13T04:10:29.322Z,988.82
2019-05-13T04:11:29.365Z,988.92
2019-05-13T04:12:33.101Z,988.83
2019-05-13T04:13:29.312Z,988.93
2019-05-13T04:14:29.361Z,988.96
2019-05-13T04:15:31.845Z,988.96
2019-05-13T04:16:32.083Z,988.96
2019-05-13T04:17:32.000Z,989.04
2019-05-13T04:18:31.918Z,989.16
2019-05-13T04:19:29.408Z,989.03
2019-05-13T04:20:29.369Z,989.05
2019-05-13T04:21:29.385Z,989.03
2019-05-13T04:22:29.402Z,988.99
2019-05-13T04:23:32.021Z,989.04
2019-05-13T04:24:29.385Z,988.99
2019-05-13T04:25:32.236Z,989.09
2019-05-13T04:26:32.118Z,989.20
2019-05-13T04:27:32.577Z,989.18
2019-05-13T04:28:32.741Z,989.01
2019-05-13T04:29:32.466Z,989.12
2019-05-13T04:30:32.763Z,989.05
2019-05-13T04:31:33.046Z,989.29
2019-05-13T04:32:33.299Z,989.27
2019-05-13T04:33:29.408Z,989.21
2019-05-13T04:34:29.448Z,989.29
2019-05-13T04:35:29.413Z,989.38
2019-05-13T04:36:31.822Z,989.32
2019-05-13T04:37:32.587Z,989.40
2019-05-13T04:38:32.180Z,989.46
2019-05-13T04:39:44.624Z,989.32
2019-05-13T04:40:29.455Z,989.57
2019-05-13T04:41:29.435Z,989.40
2019-05-13T04:42:29.450Z,989.51
2019-05-13T04:43:33.707Z,989.44
2019-05-13T04:44:32.005Z,989.46
2019-05-13T04:45:32.653Z,989.48
2019-05-13T04:46:32.528Z,989.49
2019-05-13T04:47:32.815Z,989.45
2019-05-13T04:48:29.491Z,989.51
2019-05-13T04:49:32.266Z,989.50
2019-05-13T04:50:32.532Z,989.53
2019-05-13T04:51:32.717Z,989.41
2019-05-13T04:52:32.722Z,989.55
2019-05-13T04:53:33.021Z,989.48
2019-05-13T04:54:32.756Z,989.73
2019-05-13T04:55:29.396Z,989.67
2019-05-13T04:56:32.731Z,989.59
2019-05-13T04:57:29.422Z,989.68
2019-05-13T04:58:32.147Z,989.69
2019-05-13T04:59:29.457Z,989.74
2019-05-13T05:00:32.141Z,989.69
2019-05-13T05:01:32.216Z,989.73
2019-05-13T05:02:41.969Z,989.65
2019-05-13T05:03:35.170Z,989.54
2019-05-13T05:04:33.963Z,989.64
2019-05-13T05:05:32.481Z,989.61
2019-05-13T05:06:29.424Z,989.49
2019-05-13T05:07:32.535Z,989.53
2019-05-13T05:08:32.639Z,989.64
2019-05-13T05:09:29.435Z,989.67
2019-05-13T05:10:37.291Z,989.78
2019-05-13T05:11:32.114Z,989.86
2019-05-13T05:12:31.888Z,989.69
2019-05-13T05:13:32.193Z,989.51
2019-05-13T05:14:32.350Z,989.54
2019-05-13T05:15:32.252Z,989.46
2019-05-13T05:16:32.393Z,989.64
2019-05-13T05:17:32.597Z,989.50
2019-05-13T05:18:29.462Z,989.49
2019-05-13T05:19:32.090Z,989.12
2019-05-13T05:20:29.496Z,989.44
2019-05-13T05:21:29.464Z,989.28
2019-05-13T05:22:31.451Z,989.59
2019-05-13T05:23:31.768Z,989.49
2019-05-13T05:24:31.737Z,989.53
2019-05-13T05:25:29.439Z,989.49
2019-05-13T05:26:31.311Z,989.60
2019-05-13T05:27:31.558Z,989.57
2019-05-13T05:28:29.463Z,989.55
2019-05-13T05:29:29.466Z,989.47
2019-05-13T05:30:29.461Z,989.38
2019-05-13T05:31:29.439Z,989.46
2019-05-13T05:32:31.852Z,989.49
2019-05-13T05:33:31.676Z,989.46
2019-05-13T05:34:29.437Z,989.49
2019-05-13T05:35:29.476Z,989.44
2019-05-13T05:36:29.463Z,989.44
2019-05-13T05:37:31.288Z,989.51
2019-05-13T05:38:31.681Z,989.43
2019-05-13T05:39:31.394Z,989.52
2019-05-13T05:40:32.340Z,989.45
2019-05-13T05:41:31.583Z,989.68
2019-05-13T05:42:29.498Z,989.57
2019-05-13T05:43:31.470Z,989.37
2019-05-13T05:44:32.130Z,989.58
2019-05-13T05:45:31.837Z,989.55
2019-05-13T05:46:32.221Z,989.55
2019-05-13T05:47:31.657Z,989.39
2019-05-13T05:48:31.506Z,989.40
2019-05-13T05:49:31.811Z,989.46
2019-05-13T05:50:31.842Z,989.47
2019-05-13T05:51:31.498Z,989.30
2019-05-13T05:52:31.474Z,989.41
2019-05-13T05:53:31.850Z,989.41
2019-05-13T05:54:31.660Z,989.29
2019-05-13T05:55:31.665Z,989.24
2019-05-13T05:56:29.496Z,989.29
2019-05-13T05:57:31.410Z,989.30
2019-05-13T05:58:31.502Z,989.28
2019-05-13T05:59:31.826Z,989.27
2019-05-13T06:00:29.518Z,989.53
2019-05-13T06:01:29.524Z,989.28
2019-05-13T06:02:32.022Z,989.33
2019-05-13T06:03:29.562Z,989.42
2019-05-13T06:04:32.265Z,989.32
2019-05-13T06:05:31.784Z,989.26
2019-05-13T06:06:32.726Z,989.27
2019-05-13T06:07:29.552Z,989.22
2019-05-13T06:08:32.187Z,989.22
2019-05-13T06:09:32.082Z,989.32
2019-05-13T06:10:45.810Z,989.37
2019-05-13T06:11:31.192Z,989.23
2019-05-13T06:12:31.487Z,989.33
2019-05-13T06:13:31.594Z,989.43
2019-05-13T06:14:29.563Z,989.48
2019-05-13T06:15:31.500Z,989.56
2019-05-13T06:16:31.866Z,989.49
2019-05-13T06:17:31.882Z,989.45
2019-05-13T06:18:29.567Z,989.46
2019-05-13T06:19:31.715Z,989.53
2019-05-13T06:20:31.710Z,989.53
2019-05-13T06:21:31.959Z,989.66
2019-05-13T06:22:31.920Z,989.65
2019-05-13T06:23:31.236Z,989.70
2019-05-13T06:24:31.217Z,989.71
2019-05-13T06:25:33.332Z,989.78
2019-05-13T06:26:31.435Z,989.70
2019-05-13T06:27:31.694Z,989.81
2019-05-13T06:28:32.080Z,989.77
2019-05-13T06:29:31.693Z,989.71
2019-05-13T06:30:32.413Z,989.76
2019-05-13T06:31:32.082Z,989.89
2019-05-13T06:32:31.463Z,989.87
2019-05-13T06:33:31.581Z,989.87
2019-05-13T06:34:32.360Z,989.90
2019-05-13T06:35:29.615Z,989.87
2019-05-13T06:36:31.668Z,989.97
2019-05-13T06:37:29.580Z,989.96
2019-05-13T06:38:31.649Z,989.96
2019-05-13T06:39:31.702Z,990.02
2019-05-13T06:40:31.703Z,989.92
2019-05-13T06:41:32.123Z,990.02
2019-05-13T06:42:29.582Z,990.08
2019-05-13T06:43:31.455Z,990.02
2019-05-13T06:44:31.686Z,989.97
2019-05-13T06:45:31.605Z,990.16
2019-05-13T06:46:32.157Z,990.06
2019-05-13T06:47:32.044Z,989.99
2019-05-13T06:48:29.651Z,990.15
2019-05-13T06:49:32.248Z,989.96
2019-05-13T06:50:29.659Z,990.04
2019-05-13T06:51:31.398Z,990.11
2019-05-13T06:52:31.803Z,990.25
2019-05-13T06:53:32.053Z,990.02
2019-05-13T06:54:32.530Z,990.22
2019-05-13T06:55:31.578Z,990.02
2019-05-13T06:56:32.078Z,990.16
2019-05-13T06:57:32.121Z,990.16
2019-05-13T06:58:29.644Z,990.16
2019-05-13T06:59:31.594Z,990.06
2019-05-13T07:00:34.178Z,990.06
2019-05-13T07:01:32.123Z,990.18
2019-05-13T07:02:31.866Z,990.08
2019-05-13T07:03:32.075Z,990.31
2019-05-13T07:04:30.188Z,990.06
2019-05-13T07:05:31.792Z,990.12
2019-05-13T07:06:32.096Z,990.23
2019-05-13T07:07:31.723Z,990.18
2019-05-13T07:08:31.431Z,990.14
2019-05-13T07:09:32.278Z,990.20
2019-05-13T07:10:31.920Z,990.22
2019-05-13T07:11:31.393Z,990.28
2019-05-13T07:12:31.247Z,990.37
2019-05-13T07:13:32.096Z,990.29
2019-05-13T07:14:32.155Z,990.21
2019-05-13T07:15:31.488Z,990.22
2019-05-13T07:16:31.740Z,990.16
2019-05-13T07:17:32.191Z,990.28
2019-05-13T07:18:32.178Z,990.24
2019-05-13T07:19:31.908Z,990.25
2019-05-13T07:20:32.172Z,990.27
2019-05-13T07:21:32.153Z,990.30
2019-05-13T07:22:32.123Z,990.35
2019-05-13T07:23:31.904Z,990.36
2019-05-13T07:24:31.991Z,990.29
2019-05-13T07:25:32.416Z,990.24
2019-05-13T07:26:31.498Z,990.48
2019-05-13T07:27:31.820Z,990.49
2019-05-13T07:28:32.058Z,990.35
2019-05-13T07:29:32.161Z,990.35
2019-05-13T07:30:31.483Z,990.36
2019-05-13T07:31:32.201Z,990.39
2019-05-13T07:32:31.505Z,990.35
2019-05-13T07:33:32.079Z,990.53
2019-05-13T07:34:32.903Z,990.58
2019-05-13T07:35:32.221Z,990.51
2019-05-13T07:36:31.669Z,990.36
2019-05-13T07:37:31.720Z,990.52
2019-05-13T07:38:32.217Z,990.51
2019-05-13T07:39:32.389Z,990.65
2019-05-13T07:40:32.048Z,990.53
2019-05-13T07:41:36.422Z,990.52
2019-05-13T07:42:31.290Z,990.48
2019-05-13T07:43:32.051Z,990.57
2019-05-13T07:44:32.178Z,990.54
2019-05-13T07:45:31.636Z,990.52
2019-05-13T07:46:32.063Z,990.61
2019-05-13T07:47:31.414Z,990.51
2019-05-13T07:48:31.911Z,990.50
2019-05-13T07:49:31.556Z,990.52
2019-05-13T07:50:32.123Z,990.58
2019-05-13T07:51:31.617Z,990.58
2019-05-13T07:52:31.911Z,990.57
2019-05-13T07:53:32.044Z,990.55
2019-05-13T07:54:32.582Z,990.64
2019-05-13T07:55:31.609Z,990.55
2019-05-13T07:56:32.217Z,990.53
2019-05-13T07:57:31.924Z,990.64
2019-05-13T07:58:34.020Z,990.61
2019-05-13T07:59:31.792Z,990.59
2019-05-13T08:00:32.409Z,990.62
2019-05-13T08:01:29.683Z,990.60
2019-05-13T08:02:31.933Z,990.66
2019-05-13T08:03:31.725Z,990.70
2019-05-13T08:04:29.702Z,990.64
2019-05-13T08:05:31.404Z,990.65
2019-05-13T08:06:32.149Z,990.59
2019-05-13T08:07:31.535Z,990.63
2019-05-13T08:08:32.185Z,990.61
2019-05-13T08:09:31.886Z,990.54
2019-05-13T08:10:31.903Z,990.66
2019-05-13T08:11:34.937Z,990.59
2019-05-13T08:12:31.845Z,990.67
2019-05-13T08:13:31.436Z,990.70
2019-05-13T08:14:32.230Z,990.66
2019-05-13T08:15:31.686Z,990.63
2019-05-13T08:16:32.122Z,990.56
2019-05-13T08:17:32.549Z,990.74
2019-05-13T08:18:31.947Z,990.54
2019-05-13T08:19:32.218Z,990.66
2019-05-13T08:20:32.563Z,990.89
2019-05-13T08:21:32.056Z,990.58
2019-05-13T08:22:31.883Z,990.76
2019-05-13T08:23:32.156Z,990.73
2019-05-13T08:24:31.428Z,990.57
2019-05-13T08:25:31.567Z,990.55
2019-05-13T08:26:32.102Z,990.60
2019-05-13T08:27:30.750Z,990.57
2019-05-13T08:28:32.264Z,990.54
2019-05-13T08:29:32.386Z,990.55
2019-05-13T08:30:31.854Z,990.68
2019-05-13T08:31:32.043Z,990.62
2019-05-13T08:32:31.474Z,990.65
2019-05-13T08:33:32.095Z,990.58
2019-05-13T08:34:32.612Z,990.66
2019-05-13T08:35:31.498Z,990.65
2019-05-13T08:36:29.760Z,990.71
2019-05-13T08:37:31.964Z,990.67
2019-05-13T08:38:32.032Z,990.53
2019-05-13T08:39:35.792Z,990.57
2019-05-13T08:40:31.818Z,990.61
2019-05-13T08:41:32.257Z,990.61
2019-05-13T08:42:32.128Z,990.65
2019-05-13T08:43:31.610Z,990.70
2019-05-13T08:44:32.034Z,990.67
2019-05-13T08:45:31.499Z,990.78
2019-05-13T08:46:32.069Z,990.70
2019-05-13T08:47:31.371Z,990.66
2019-05-13T08:48:32.106Z,990.57
2019-05-13T08:49:32.296Z,990.61
2019-05-13T08:50:32.249Z,990.58
2019-05-13T08:51:32.251Z,990.57
2019-05-13T08:52:31.343Z,990.60
2019-05-13T08:53:31.752Z,990.50
2019-05-13T08:54:32.416Z,990.34
2019-05-13T08:55:32.042Z,990.68
2019-05-13T08:56:32.453Z,990.48
2019-05-13T08:57:31.570Z,990.58
2019-05-13T08:58:31.842Z,990.67
2019-05-13T08:59:31.747Z,990.54
2019-05-13T09:00:31.824Z,990.61
2019-05-13T09:01:31.930Z,990.52
2019-05-13T09:02:31.386Z,990.63
2019-05-13T09:03:32.455Z,990.57
2019-05-13T09:04:31.570Z,990.48
2019-05-13T09:05:31.847Z,990.68
2019-05-13T09:06:31.241Z,990.58
2019-05-13T09:07:31.882Z,990.56
2019-05-13T09:08:31.944Z,990.44
2019-05-13T09:09:31.404Z,990.52
2019-05-13T09:10:31.868Z,990.76
2019-05-13T09:11:31.489Z,990.55
2019-05-13T09:12:35.129Z,990.51
2019-05-13T09:13:29.835Z,990.55
2019-05-13T09:14:32.249Z,990.60
2019-05-13T09:15:31.612Z,990.71
2019-05-13T09:16:32.012Z,990.75
2019-05-13T09:17:31.902Z,990.52
2019-05-13T09:18:32.153Z,990.62
2019-05-13T09:19:31.985Z,990.66
2019-05-13T09:20:32.182Z,990.62
2019-05-13T09:21:31.792Z,990.46
2019-05-13T09:22:31.863Z,990.67
2019-05-13T09:23:31.450Z,990.63
2019-05-13T09:24:36.680Z,990.72
2019-05-13T09:25:31.996Z,990.73
2019-05-13T09:26:31.592Z,990.57
2019-05-13T09:27:31.861Z,990.72
2019-05-13T09:28:32.285Z,990.86
2019-05-13T09:29:32.226Z,990.68
2019-05-13T09:30:31.587Z,990.77
2019-05-13T09:31:32.224Z,990.86
2019-05-13T09:32:31.784Z,990.75
2019-05-13T09:33:32.345Z,990.70
2019-05-13T09:34:32.511Z,990.72
2019-05-13T09:35:31.579Z,990.73
2019-05-13T09:36:32.222Z,990.82
2019-05-13T09:37:31.697Z,990.78
2019-05-13T09:38:32.379Z,990.65
2019-05-13T09:39:32.089Z,990.74
2019-05-13T09:40:31.395Z,990.74
2019-05-13T09:41:32.290Z,990.90
2019-05-13T09:42:47.550Z,990.76
2019-05-13T09:43:31.505Z,990.71
2019-05-13T09:44:32.408Z,990.76
2019-05-13T09:45:32.047Z,990.87
2019-05-13T09:46:31.855Z,990.67
2019-05-13T09:47:32.034Z,990.80
2019-05-13T09:48:31.927Z,990.77
2019-05-13T09:49:32.478Z,990.82
2019-05-13T09:50:35.335Z,990.76
2019-05-13T09:51:32.176Z,990.78
2019-05-13T09:52:31.923Z,990.79
2019-05-13T09:53:32.334Z,990.89
2019-05-13T09:54:32.949Z,990.85
2019-05-13T09:55:32.477Z,990.79
2019-05-13T09:56:31.900Z,990.84
2019-05-13T09:57:32.204Z,990.86
2019-05-13T09:58:32.776Z,990.75
2019-05-13T09:59:31.927Z,990.91
2019-05-13T10:00:32.287Z,990.78
2019-05-13T10:01:32.076Z,990.96
2019-05-13T10:02:32.117Z,990.87
2019-05-13T10:03:32.890Z,990.87
2019-05-13T10:04:31.733Z,990.79
2019-05-13T10:05:31.673Z,990.88
2019-05-13T10:06:32.372Z,990.89
2019-05-13T10:07:31.869Z,990.87
2019-05-13T10:08:32.173Z,990.82
2019-05-13T10:09:32.134Z,990.88
2019-05-13T10:10:31.867Z,990.91
2019-05-13T10:11:29.930Z,990.85
2019-05-13T10:12:31.990Z,990.80
2019-05-13T10:13:31.720Z,990.80
2019-05-13T10:14:32.428Z,990.69
2019-05-13T10:15:32.350Z,990.83
2019-05-13T10:16:31.344Z,990.83
2019-05-13T10:17:31.812Z,990.65
2019-05-13T10:18:32.226Z,990.76
2019-05-13T10:19:32.283Z,990.61
2019-05-13T10:20:31.730Z,990.70
2019-05-13T10:21:32.284Z,990.65
2019-05-13T10:22:32.015Z,990.66
2019-05-13T10:23:32.699Z,990.62
2019-05-13T10:24:32.326Z,990.66
2019-05-13T10:25:29.907Z,990.62
2019-05-13T10:26:32.041Z,990.61
2019-05-13T10:27:31.892Z,990.79
2019-05-13T10:28:31.930Z,990.61
2019-05-13T10:29:31.655Z,990.61
2019-05-13T10:30:32.189Z,990.77
2019-05-13T10:31:31.458Z,990.68
2019-05-13T10:32:32.242Z,990.62
2019-05-13T10:33:31.830Z,990.55
2019-05-13T10:34:32.168Z,990.56
2019-05-13T10:35:31.704Z,990.70
2019-05-13T10:36:29.951Z,990.62
2019-05-13T10:37:29.896Z,990.78
2019-05-13T10:38:32.169Z,990.54
2019-05-13T10:39:29.947Z,990.65
2019-05-13T10:40:32.697Z,990.77
2019-05-13T10:41:32.986Z,990.82
2019-05-13T10:42:29.935Z,990.70
2019-05-13T10:43:31.691Z,990.52
2019-05-13T10:44:29.958Z,990.78
2019-05-13T10:45:32.428Z,990.65
2019-05-13T10:46:32.085Z,990.72
2019-05-13T10:47:29.962Z,990.64
2019-05-13T10:48:29.920Z,990.58
2019-05-13T10:49:32.748Z,990.77
2019-05-13T10:50:30.063Z,990.71
2019-05-13T10:51:32.205Z,990.60
2019-05-13T10:52:32.263Z,990.66
2019-05-13T10:53:32.002Z,990.60
2019-05-13T10:54:32.293Z,990.62
2019-05-13T10:55:32.236Z,990.56
2019-05-13T10:56:32.691Z,990.52
2019-05-13T10:57:31.829Z,990.84
2019-05-13T10:58:29.916Z,990.50
2019-05-13T10:59:29.938Z,990.60
2019-05-13T11:00:32.047Z,990.67
2019-05-13T11:01:32.612Z,990.73
2019-05-13T11:02:32.780Z,990.53
2019-05-13T11:03:32.811Z,990.65
2019-05-13T11:04:32.006Z,990.67
2019-05-13T11:05:32.434Z,990.69
2019-05-13T11:06:32.112Z,990.60
2019-05-13T11:07:32.016Z,990.70
2019-05-13T11:08:32.256Z,990.72
2019-05-13T11:09:32.482Z,990.60
2019-05-13T11:10:32.131Z,990.80
2019-05-13T11:11:32.969Z,990.61
2019-05-13T11:12:29.957Z,990.65
2019-05-13T11:13:49.649Z,990.57
2019-05-13T11:14:31.800Z,990.60
2019-05-13T11:15:32.859Z,990.57
2019-05-13T11:16:29.926Z,990.58
2019-05-13T11:17:31.274Z,990.61
2019-05-13T11:18:29.960Z,990.60
2019-05-13T11:19:34.379Z,990.50
2019-05-13T11:20:32.267Z,990.50
2019-05-13T11:21:32.055Z,990.63
2019-05-13T11:22:32.138Z,990.34
2019-05-13T11:23:32.125Z,990.43
2019-05-13T11:24:32.480Z,990.52
2019-05-13T11:25:32.219Z,990.40
2019-05-13T11:26:35.638Z,990.50
2019-05-13T11:27:32.194Z,990.48
2019-05-13T11:28:31.737Z,990.58
2019-05-13T11:29:32.380Z,990.43
2019-05-13T11:30:31.938Z,990.53
2019-05-13T11:31:32.543Z,990.65
2019-05-13T11:32:31.739Z,990.56
2019-05-13T11:33:31.874Z,990.53
2019-05-13T11:34:32.600Z,990.54
2019-05-13T11:35:32.005Z,990.60
2019-05-13T11:36:30.059Z,990.57
2019-05-13T11:37:32.042Z,990.43
2019-05-13T11:38:32.700Z,990.48
2019-05-13T11:39:32.496Z,990.52
2019-05-13T11:40:31.810Z,990.42
2019-05-13T11:41:32.450Z,990.52
2019-05-13T11:42:32.566Z,990.35
2019-05-13T11:43:29.964Z,990.29
2019-05-13T11:44:32.245Z,990.37
2019-05-13T11:45:31.551Z,990.44
2019-05-13T11:46:32.449Z,990.51
2019-05-13T11:47:32.283Z,990.45
2019-05-13T11:48:32.284Z,990.50
2019-05-13T11:49:31.582Z,990.53
2019-05-13T11:50:30.059Z,990.24
2019-05-13T11:51:31.983Z,990.58
2019-05-13T11:52:31.546Z,990.46
2019-05-13T11:53:33.279Z,990.67
2019-05-13T11:54:29.983Z,990.55
2019-05-13T11:55:29.997Z,990.50
2019-05-13T11:56:33.583Z,990.60
2019-05-13T11:57:31.604Z,990.39
2019-05-13T11:58:30.078Z,990.45
2019-05-13T11:59:32.674Z,990.33
2019-05-13T12:00:31.784Z,990.47
2019-05-13T12:01:32.663Z,990.33
2019-05-13T12:02:32.723Z,990.37
2019-05-13T12:03:32.375Z,990.39
2019-05-13T12:04:33.071Z,990.48
2019-05-13T12:05:32.630Z,990.47
2019-05-13T12:06:33.183Z,990.33
2019-05-13T12:07:32.269Z,990.37
2019-05-13T12:08:33.125Z,990.40
2019-05-13T12:09:32.003Z,990.42
2019-05-13T12:10:32.576Z,990.53
2019-05-13T12:11:33.118Z,990.47
2019-05-13T12:12:33.616Z,990.50
2019-05-13T12:13:32.267Z,990.41
2019-05-13T12:14:44.222Z,990.53
2019-05-13T12:15:45.508Z,990.43
2019-05-13T12:16:30.009Z,990.49
2019-05-13T12:17:33.740Z,990.37
2019-05-13T12:18:30.003Z,990.45
2019-05-13T12:19:30.019Z,990.47
2019-05-13T12:20:32.834Z,990.41
2019-05-13T12:21:30.051Z,990.50
2019-05-13T12:22:30.004Z,990.41
2019-05-13T12:23:30.052Z,990.42
2019-05-13T12:24:30.044Z,990.43
2019-05-13T12:25:33.301Z,990.40
2019-05-13T12:26:33.259Z,990.54
2019-05-13T12:27:31.749Z,990.41
2019-05-13T12:28:30.023Z,990.50